Time;durP1;ratioP1;P1;durP2;ratioP2;P2;SDS_P1;SDS_P2;PMS_P1;PMS_P2;Temp;Humidity;BMP_temperature;BMP_pressure;BME280_temperature;BME280_humidity;BME280_pressure;Samples;Min_cycle;Max_cycle;Signal;HPM_P1;HPM_P2
2021/12/26 00:00:55;;;;;;;11.93;5.88;;;-0.70;92.90;;;;;;5031280;28;20545;-69
2021/12/26 00:03:23;;;;;;;14.88;7.00;;;-0.70;93.90;;;;;;5045720;28;21040;-69
2021/12/26 00:05:50;;;;;;;14.35;6.43;;;-0.70;94.60;;;;;;5049712;28;20027;-69
2021/12/26 00:08:16;;;;;;;11.63;5.70;;;-0.70;93.60;;;;;;5044260;28;20032;-69
2021/12/26 00:10:41;;;;;;;12.07;5.47;;;-0.60;94.60;;;;;;5050181;28;20033;-69
2021/12/26 00:13:07;;;;;;;12.53;5.87;;;-0.60;94.10;;;;;;5040678;28;20025;-69
2021/12/26 00:15:33;;;;;;;12.23;5.70;;;-0.60;92.00;;;;;;5044542;28;20025;-69
2021/12/26 00:17:59;;;;;;;11.67;5.83;;;-0.60;91.90;;;;;;5041510;28;20021;-70
2021/12/26 00:20:26;;;;;;;12.43;5.83;;;-0.60;92.00;;;;;;5042229;28;20088;-69
2021/12/26 00:22:52;;;;;;;14.55;6.47;;;-0.60;92.70;;;;;;5047414;28;20668;-69
2021/12/26 00:25:18;;;;;;;10.33;5.70;;;-0.60;92.50;;;;;;5045918;28;20028;-70
2021/12/26 00:27:44;;;;;;;12.43;6.17;;;-0.60;92.40;;;;;;5048137;28;20263;-69
2021/12/26 00:30:14;;;;;;;12.30;5.15;;;-0.60;93.20;;;;;;5038787;28;20047;-69
2021/12/26 00:32:40;;;;;;;9.13;5.10;;;-0.60;92.40;;;;;;5048292;28;20467;-69
2021/12/26 00:35:06;;;;;;;14.23;6.30;;;-0.50;92.80;;;;;;5022884;28;20136;-70
2021/12/26 00:37:32;;;;;;;13.57;6.15;;;-0.50;92.50;;;;;;5044888;28;20034;-69
2021/12/26 00:39:58;;;;;;;13.27;6.13;;;-0.60;92.50;;;;;;5039328;28;20024;-70
2021/12/26 00:42:23;;;;;;;13.13;6.60;;;-0.60;93.10;;;;;;5043442;28;20108;-69
2021/12/26 00:44:49;;;;;;;9.57;5.27;;;-0.60;93.10;;;;;;5046712;28;20032;-71
2021/12/26 00:47:15;;;;;;;11.60;7.10;;;-0.60;93.40;;;;;;5043023;28;21156;-69
2021/12/26 00:49:41;;;;;;;13.87;5.93;;;-0.60;93.40;;;;;;5048694;28;20031;-69
2021/12/26 00:52:08;;;;;;;11.87;5.70;;;-0.60;92.90;;;;;;5043363;28;20128;-69
2021/12/26 00:54:34;;;;;;;11.20;5.18;;;-0.70;92.90;;;;;;5050406;28;20033;-69
2021/12/26 00:57:00;;;;;;;12.25;5.93;;;-0.60;92.20;;;;;;5044309;28;20044;-70
2021/12/26 00:59:27;;;;;;;15.25;5.97;;;-0.70;91.40;;;;;;5046983;28;20607;-70
2021/12/26 01:01:54;;;;;;;12.77;6.15;;;-0.80;91.60;;;;;;5046523;28;20101;-70
2021/12/26 01:04:21;;;;;;;12.40;5.53;;;-0.80;91.40;;;;;;5045280;28;20496;-69
2021/12/26 01:06:47;;;;;;;12.15;5.88;;;-0.80;91.30;;;;;;5047118;28;20036;-69
2021/12/26 01:09:18;;;;;;;11.30;5.87;;;-0.80;91.20;;;;;;5046832;28;20021;-69
2021/12/26 01:11:49;;;;;;;13.75;6.00;;;-0.80;91.70;;;;;;5053028;28;20020;-70
2021/12/26 01:14:17;;;;;;;13.35;5.80;;;-0.80;91.50;;;;;;5046766;28;20024;-69
2021/12/26 01:16:44;;;;;;;11.93;5.20;;;-0.80;91.80;;;;;;5043795;28;20025;-70
2021/12/26 01:19:14;;;;;;;14.45;6.65;;;-0.80;91.70;;;;;;5044386;28;20454;-69
2021/12/26 01:21:42;;;;;;;9.85;5.53;;;-0.80;92.00;;;;;;5044929;28;20008;-70
2021/12/26 01:24:12;;;;;;;15.25;6.43;;;-0.80;92.10;;;;;;5031648;28;20021;-70
2021/12/26 01:26:40;;;;;;;11.50;5.60;;;-0.80;91.00;;;;;;5048099;28;20107;-70
2021/12/26 01:29:06;;;;;;;14.85;6.20;;;-0.80;90.50;;;;;;5042767;28;20470;-70
2021/12/26 01:31:32;;;;;;;12.48;5.63;;;-0.80;91.20;;;;;;5049216;28;20121;-69
2021/12/26 01:34:01;;;;;;;11.85;5.60;;;-0.80;91.60;;;;;;5046365;28;20029;-69
2021/12/26 01:36:28;;;;;;;13.02;5.97;;;-0.70;90.90;;;;;;5031166;28;20070;-69
2021/12/26 01:38:56;;;;;;;11.82;6.05;;;-0.80;90.70;;;;;;5029743;28;20450;-69
2021/12/26 01:41:22;;;;;;;12.25;5.60;;;-0.80;91.00;;;;;;5050868;28;20028;-69
2021/12/26 01:43:52;;;;;;;14.55;6.00;;;-0.80;90.10;;;;;;5043323;28;20056;-69
2021/12/26 01:46:19;;;;;;;13.52;5.47;;;-0.90;90.70;;;;;;5040713;28;20029;-69
2021/12/26 01:48:45;;;;;;;11.18;5.45;;;-0.90;90.90;;;;;;5030321;28;20074;-70
2021/12/26 01:51:11;;;;;;;13.07;5.90;;;-0.90;91.20;;;;;;5046292;28;20088;-69
2021/12/26 01:53:39;;;;;;;12.38;5.90;;;-0.90;90.50;;;;;;5044363;28;20052;-69
2021/12/26 01:56:11;;;;;;;14.18;5.55;;;-0.90;90.30;;;;;;5048976;28;20489;-70
2021/12/26 01:58:38;;;;;;;11.80;5.18;;;-1.00;90.00;;;;;;5048202;28;20032;-69
2021/12/26 02:01:10;;;;;;;14.30;5.85;;;-1.00;90.50;;;;;;5047174;28;20051;-69
2021/12/26 02:03:37;;;;;;;9.52;5.38;;;-1.00;91.20;;;;;;5043267;28;20052;-69
2021/12/26 02:06:05;;;;;;;11.93;5.40;;;-1.00;90.60;;;;;;5049579;28;20028;-69
2021/12/26 02:08:30;;;;;;;11.40;5.57;;;-1.00;90.90;;;;;;5044378;28;20569;-69
2021/12/26 02:11:00;;;;;;;11.77;5.70;;;-1.10;90.90;;;;;;5048407;28;20025;-70
2021/12/26 02:13:28;;;;;;;15.70;6.00;;;-1.00;90.70;;;;;;5031209;28;20025;-69
2021/12/26 02:15:54;;;;;;;11.38;5.20;;;-1.00;90.80;;;;;;5044473;28;20051;-70
2021/12/26 02:18:20;;;;;;;13.77;6.87;;;-1.00;90.90;;;;;;5042206;28;20049;-69
2021/12/26 02:28:27;;;;;;;9.57;5.07;;;-1.00;89.70;;;;;;5043616;28;20028;-69
2021/12/26 02:30:55;;;;;;;12.02;5.30;;;-1.00;89.70;;;;;;5045774;28;20028;-69
2021/12/26 02:33:22;;;;;;;11.32;5.65;;;-1.00;90.10;;;;;;5044321;28;20020;-69
2021/12/26 02:35:49;;;;;;;11.82;5.38;;;-1.00;90.30;;;;;;5047539;28;20411;-69
2021/12/26 02:38:16;;;;;;;13.27;5.03;;;-0.90;90.60;;;;;;5046124;28;20036;-69
2021/12/26 02:40:43;;;;;;;9.27;5.30;;;-0.90;90.10;;;;;;5045988;28;20024;-69
2021/12/26 02:43:10;;;;;;;11.90;5.65;;;-0.90;89.20;;;;;;5043258;28;20074;-69
2021/12/26 02:45:36;;;;;;;;;;;-0.90;89.30;;;;;;5048204;28;20035;-69
2021/12/26 02:48:02;;;;;;;11.30;5.28;;;-0.80;90.00;;;;;;5044432;28;19912;-69
2021/12/26 02:50:30;;;;;;;10.50;5.15;;;-0.80;90.10;;;;;;5042368;28;20021;-69
2021/12/26 02:52:58;;;;;;;10.85;5.55;;;-0.80;89.30;;;;;;5045641;28;20485;-69
2021/12/26 02:55:25;;;;;;;11.27;5.32;;;-0.80;90.00;;;;;;5042432;28;20013;-70
2021/12/26 02:57:54;;;;;;;11.85;5.20;;;-0.80;88.80;;;;;;5046136;28;20051;-70
2021/12/26 03:00:23;;;;;;;11.02;5.18;;;-0.80;89.10;;;;;;5041425;28;20020;-69
2021/12/26 03:02:52;;;;;;;11.43;5.90;;;-0.70;89.10;;;;;;5046665;28;20018;-69
2021/12/26 03:05:18;;;;;;;10.30;5.25;;;-0.80;88.80;;;;;;5045034;28;20009;-69
2021/12/26 03:07:46;;;;;;;10.27;5.20;;;-0.80;88.90;;;;;;5046681;28;20091;-69
2021/12/26 03:10:21;;;;;;;13.20;5.70;;;-0.80;88.60;;;;;;5042683;28;20106;-70
2021/12/26 03:12:48;;;;;;;11.52;5.63;;;-0.90;89.10;;;;;;5047798;28;20044;-70
2021/12/26 03:15:14;;;;;;;12.90;5.22;;;-0.90;87.70;;;;;;5043361;28;20059;-69
2021/12/26 03:17:40;;;;;;;10.20;5.13;;;-0.90;88.80;;;;;;5047416;28;20161;-70
2021/12/26 03:20:10;;;;;;;11.40;5.40;;;-0.90;89.10;;;;;;5040282;28;20285;-69
2021/12/26 03:22:36;;;;;;;10.93;4.60;;;-1.00;87.90;;;;;;5028085;28;20024;-69
2021/12/26 03:25:05;;;;;;;10.17;4.80;;;-1.00;89.50;;;;;;5026238;28;20027;-69
2021/12/26 03:27:31;;;;;;;11.35;5.40;;;-1.00;87.90;;;;;;5045751;28;20458;-69
2021/12/26 03:29:56;;;;;;;9.50;4.63;;;-1.10;88.00;;;;;;5046307;28;20047;-69
2021/12/26 03:32:23;;;;;;;15.37;6.37;;;-1.10;88.10;;;;;;5045330;28;20481;-70
2021/12/26 03:34:50;;;;;;;11.52;4.40;;;-1.10;89.40;;;;;;5046272;28;20048;-69
2021/12/26 03:37:17;;;;;;;11.23;5.20;;;-1.10;89.10;;;;;;5039724;28;20021;-69
2021/12/26 03:39:44;;;;;;;9.68;4.53;;;-1.10;89.20;;;;;;5023983;28;20028;-69
2021/12/26 03:42:10;;;;;;;8.18;4.38;;;-1.00;88.70;;;;;;5028045;28;20499;-69
2021/12/26 03:44:36;;;;;;;10.80;5.63;;;-1.10;88.30;;;;;;5041383;28;20031;-69
2021/12/26 03:47:03;;;;;;;10.33;4.33;;;-1.10;88.30;;;;;;5047929;28;20024;-69
2021/12/26 03:49:28;;;;;;;12.15;5.47;;;-1.10;88.30;;;;;;5046483;28;20517;-69
2021/12/26 03:51:54;;;;;;;11.23;4.90;;;-1.10;88.70;;;;;;5045652;28;20033;-69
2021/12/26 03:54:20;;;;;;;13.10;5.23;;;-1.10;88.40;;;;;;5028928;28;20036;-69
2021/12/26 03:56:46;;;;;;;9.03;4.17;;;-1.00;89.00;;;;;;5043461;28;20025;-69
2021/12/26 03:59:12;;;;;;;14.43;5.23;;;-1.00;88.70;;;;;;5041382;28;20021;-69
2021/12/26 04:01:38;;;;;;;10.75;5.03;;;-1.00;88.80;;;;;;5041251;28;20256;-69
2021/12/26 04:04:04;;;;;;;9.77;4.60;;;-1.00;87.10;;;;;;5044574;28;20530;-69
2021/12/26 04:06:31;;;;;;;12.53;5.33;;;-1.00;88.30;;;;;;5046048;28;20044;-70
2021/12/26 04:08:57;;;;;;;10.00;5.25;;;-1.00;89.00;;;;;;5043563;28;20488;-69
2021/12/26 04:11:23;;;;;;;12.80;4.83;;;-1.00;87.60;;;;;;5044956;28;20108;-69
2021/12/26 04:13:49;;;;;;;10.30;5.20;;;-1.00;87.50;;;;;;5041697;28;20535;-69
2021/12/26 04:16:15;;;;;;;10.57;4.63;;;-1.10;88.50;;;;;;5028205;28;20021;-69
2021/12/26 04:18:41;;;;;;;12.40;5.20;;;-1.10;87.40;;;;;;5045340;28;20275;-69
2021/12/26 04:21:06;;;;;;;12.93;5.93;;;-1.10;87.80;;;;;;5053129;28;20032;-69
2021/12/26 04:23:33;;;;;;;10.27;4.90;;;-1.10;88.30;;;;;;5027639;28;20089;-69
2021/12/26 04:25:59;;;;;;;11.23;5.18;;;-1.20;88.20;;;;;;5049611;28;20020;-69
2021/12/26 04:28:25;;;;;;;10.47;4.73;;;-1.20;90.00;;;;;;5049898;28;20107;-69
2021/12/26 04:30:51;;;;;;;8.80;4.83;;;-1.20;89.30;;;;;;5042231;28;20832;-69
2021/12/26 04:33:17;;;;;;;8.87;5.00;;;-1.30;90.00;;;;;;5047651;28;20028;-69
2021/12/26 04:35:42;;;;;;;10.47;5.17;;;-1.30;90.50;;;;;;5047573;28;20031;-70
2021/12/26 04:38:08;;;;;;;9.30;5.00;;;-1.30;90.50;;;;;;5049397;28;20658;-69
2021/12/26 04:40:34;;;;;;;9.00;4.63;;;-1.30;90.20;;;;;;5045769;28;20568;-69
2021/12/26 04:43:00;;;;;;;10.20;4.77;;;-1.40;90.00;;;;;;5047780;28;20043;-69
2021/12/26 04:45:26;;;;;;;9.95;4.82;;;-1.50;89.40;;;;;;5046283;28;20029;-69
2021/12/26 04:47:52;;;;;;;10.03;4.87;;;-1.50;88.60;;;;;;5046333;28;20043;-69
2021/12/26 04:50:21;;;;;;;10.52;5.35;;;-1.60;90.00;;;;;;5049193;28;20028;-69
2021/12/26 04:52:49;;;;;;;10.88;5.25;;;-1.60;90.30;;;;;;5045589;28;20453;-69
2021/12/26 04:55:19;;;;;;;12.23;4.47;;;-1.60;90.40;;;;;;5043062;28;20077;-69
2021/12/26 04:57:45;;;;;;;9.75;5.28;;;-1.60;90.40;;;;;;5042603;28;20009;-69
2021/12/26 05:00:14;;;;;;;9.38;4.53;;;-1.70;90.00;;;;;;5044490;28;20032;-69
2021/12/26 05:02:42;;;;;;;11.13;4.80;;;-1.80;90.50;;;;;;5044792;28;20082;-69
2021/12/26 05:05:09;;;;;;;11.43;4.93;;;-1.80;90.20;;;;;;5047391;28;20086;-69
2021/12/26 05:07:37;;;;;;;8.80;4.82;;;-1.80;90.00;;;;;;5045023;28;20044;-69
2021/12/26 05:10:04;;;;;;;16.02;5.20;;;-1.80;89.80;;;;;;5030250;28;20646;-69
2021/12/26 05:12:29;;;;;;;11.82;5.72;;;-1.90;89.80;;;;;;5026552;28;20028;-69
2021/12/26 05:14:55;;;;;;;10.57;4.83;;;-1.90;89.90;;;;;;5044633;28;20072;-69
2021/12/26 05:17:21;;;;;;;10.67;5.17;;;-2.00;89.30;;;;;;5043805;28;20037;-69
2021/12/26 05:19:46;;;;;;;10.27;5.17;;;-2.00;90.10;;;;;;5044502;28;20508;-69
2021/12/26 05:22:12;;;;;;;12.40;5.80;;;-2.00;90.20;;;;;;5048195;28;20112;-69
2021/12/26 05:24:39;;;;;;;12.83;5.47;;;-2.00;90.00;;;;;;5042129;28;20100;-69
2021/12/26 05:27:05;;;;;;;12.82;4.90;;;-2.00;89.70;;;;;;5029252;28;20028;-69
2021/12/26 05:29:30;;;;;;;10.07;4.93;;;-2.00;88.90;;;;;;5044282;28;20746;-69
2021/12/26 05:31:56;;;;;;;11.67;5.23;;;-2.00;90.20;;;;;;5041235;28;20036;-69
2021/12/26 05:34:22;;;;;;;12.27;5.27;;;-1.90;89.70;;;;;;5027106;28;20032;-69
2021/12/26 05:36:48;;;;;;;9.23;4.57;;;-1.90;89.10;;;;;;5040075;28;20021;-69
2021/12/26 05:39:14;;;;;;;8.27;4.20;;;-1.90;89.60;;;;;;5045420;28;20040;-69
2021/12/26 05:41:41;;;;;;;12.57;5.75;;;-1.90;88.20;;;;;;5025258;28;20433;-68
2021/12/26 05:44:08;;;;;;;12.10;5.50;;;-1.90;89.30;;;;;;5028493;28;20481;-68
2021/12/26 05:46:34;;;;;;;10.38;4.75;;;-1.90;89.30;;;;;;5039635;28;20024;-69
2021/12/26 05:49:00;;;;;;;12.35;4.90;;;-1.90;89.40;;;;;;5028484;28;20388;-69
2021/12/26 05:51:27;;;;;;;12.87;5.20;;;-1.80;89.10;;;;;;5045592;28;20033;-69
2021/12/26 05:53:53;;;;;;;11.52;5.32;;;-1.90;89.00;;;;;;5043858;28;20860;-69
2021/12/26 05:56:19;;;;;;;10.23;4.90;;;-1.90;89.40;;;;;;5045981;28;20021;-69
2021/12/26 05:58:45;;;;;;;11.20;5.03;;;-1.80;89.20;;;;;;5024715;28;20016;-69
2021/12/26 06:01:11;;;;;;;10.20;4.17;;;-1.80;90.30;;;;;;5047491;28;20693;-69
2021/12/26 06:03:37;;;;;;;11.53;5.10;;;-1.80;90.20;;;;;;5042659;28;20028;-69
2021/12/26 06:06:04;;;;;;;12.93;4.80;;;-1.90;90.40;;;;;;5048888;28;20053;-69
2021/12/26 06:08:29;;;;;;;13.02;5.45;;;-1.90;90.10;;;;;;5041565;28;20024;-70
2021/12/26 06:10:55;;;;;;;12.43;5.07;;;-1.90;88.40;;;;;;5043108;28;20523;-69
2021/12/26 06:13:21;;;;;;;14.83;5.60;;;-2.00;88.50;;;;;;5041381;28;20024;-69
2021/12/26 06:15:46;;;;;;;10.50;5.20;;;-2.00;89.40;;;;;;5046447;28;20055;-69
2021/12/26 06:18:12;;;;;;;12.33;5.33;;;-2.00;89.90;;;;;;5042776;28;20029;-69
2021/12/26 06:20:38;;;;;;;14.03;5.40;;;-2.00;90.10;;;;;;5044619;28;20466;-70
2021/12/26 06:23:04;;;;;;;13.77;5.93;;;-2.00;90.40;;;;;;5043168;28;20033;-69
2021/12/26 06:25:30;;;;;;;11.87;4.67;;;-2.00;90.60;;;;;;5045193;28;20029;-69
2021/12/26 06:27:55;;;;;;;11.07;5.53;;;-2.00;90.80;;;;;;5041816;28;20033;-69
2021/12/26 06:30:21;;;;;;;14.97;6.30;;;-2.00;91.20;;;;;;5037915;28;20055;-69
2021/12/26 06:32:48;;;;;;;11.27;5.00;;;-2.10;90.60;;;;;;5021926;28;20112;-69
2021/12/26 06:35:15;;;;;;;13.45;6.57;;;-2.10;91.40;;;;;;5042793;28;20043;-69
2021/12/26 06:37:41;;;;;;;12.73;5.65;;;-2.10;91.60;;;;;;5039690;28;20020;-69
2021/12/26 06:40:09;;;;;;;13.40;5.68;;;-2.10;91.50;;;;;;5040301;28;20028;-69
2021/12/26 06:42:40;;;;;;;17.17;7.40;;;-2.10;92.10;;;;;;5043455;28;20198;-68
2021/12/26 06:45:08;;;;;;;15.30;5.88;;;-2.10;91.50;;;;;;5042894;28;20025;-69
2021/12/26 06:47:35;;;;;;;16.25;5.90;;;-2.10;91.20;;;;;;5042905;28;20137;-69
2021/12/26 06:50:00;;;;;;;;;;;-2.10;91.70;;;;;;5042665;28;20024;-69
2021/12/26 06:52:26;;;;;;;11.23;5.07;;;-2.10;91.90;;;;;;5039552;28;20245;-69
2021/12/26 06:54:53;;;;;;;12.07;6.07;;;-2.10;91.70;;;;;;5046535;28;20036;-69
2021/12/26 06:57:18;;;;;;;12.57;6.05;;;-2.10;91.90;;;;;;5039971;28;20070;-69
2021/12/26 06:59:44;;;;;;;12.57;5.63;;;-2.10;92.00;;;;;;5042924;28;20549;-69
2021/12/26 07:02:10;;;;;;;14.53;5.70;;;-2.10;92.50;;;;;;5039594;28;20049;-69
2021/12/26 07:04:35;;;;;;;15.60;5.50;;;-2.10;92.50;;;;;;5043773;28;20632;-69
2021/12/26 07:07:01;;;;;;;12.77;5.60;;;-2.00;92.70;;;;;;5025767;28;20036;-69
2021/12/26 07:09:27;;;;;;;11.73;6.03;;;-2.10;91.90;;;;;;5043308;28;20017;-69
2021/12/26 07:11:52;;;;;;;15.30;6.33;;;-2.10;91.90;;;;;;5042567;28;20369;-69
2021/12/26 07:14:18;;;;;;;10.00;5.60;;;-2.00;92.30;;;;;;5041567;28;20127;-69
2021/12/26 07:16:44;;;;;;;12.67;5.80;;;-2.00;92.20;;;;;;5042279;28;20052;-69
2021/12/26 07:19:09;;;;;;;13.63;5.43;;;-2.00;92.70;;;;;;5040914;28;20021;-69
2021/12/26 07:21:35;;;;;;;14.63;6.77;;;-1.90;92.40;;;;;;5044881;28;20049;-69
2021/12/26 07:24:01;;;;;;;12.87;6.37;;;-1.90;92.50;;;;;;5042313;28;20020;-69
2021/12/26 07:26:26;;;;;;;12.03;6.53;;;-1.80;92.90;;;;;;5045944;28;20025;-69
2021/12/26 07:28:52;;;;;;;11.93;5.77;;;-1.80;92.10;;;;;;5043312;28;20070;-69
2021/12/26 07:31:18;;;;;;;15.53;6.07;;;-1.70;92.10;;;;;;5041415;28;20060;-69
2021/12/26 07:33:43;;;;;;;13.57;7.17;;;-1.70;92.00;;;;;;5042123;28;20033;-69
2021/12/26 07:36:09;;;;;;;14.00;6.33;;;-1.50;92.10;;;;;;5023200;28;20024;-69
2021/12/26 07:38:34;;;;;;;12.70;5.80;;;-1.40;92.20;;;;;;5040837;28;20039;-69
2021/12/26 07:41:01;;;;;;;12.80;6.20;;;-1.20;91.70;;;;;;5042751;28;20036;-69
2021/12/26 07:43:28;;;;;;;14.73;7.00;;;-1.10;90.30;;;;;;5039891;28;20588;-69
2021/12/26 07:45:53;;;;;;;11.65;6.00;;;-1.00;89.30;;;;;;5044306;28;20730;-69
2021/12/26 07:48:19;;;;;;;18.47;8.07;;;-0.90;89.20;;;;;;5036043;28;20087;-69
2021/12/26 07:50:45;;;;;;;15.87;7.70;;;-0.90;85.00;;;;;;5044943;28;20720;-68
2021/12/26 07:53:12;;;;;;;19.03;8.50;;;-0.90;82.50;;;;;;5044339;28;20138;-68
2021/12/26 07:55:38;;;;;;;18.30;7.78;;;-0.90;83.20;;;;;;5048383;28;20916;-68
2021/12/26 07:58:05;;;;;;;16.08;7.38;;;-1.00;84.40;;;;;;5024137;28;20029;-68
2021/12/26 08:00:31;;;;;;;17.52;7.78;;;-0.90;82.60;;;;;;5045909;28;20021;-69
2021/12/26 08:02:58;;;;;;;20.50;8.27;;;-0.90;82.40;;;;;;5043760;28;20137;-68
2021/12/26 08:05:25;;;;;;;19.45;8.00;;;-0.90;82.70;;;;;;5022242;28;20032;-69
2021/12/26 08:07:51;;;;;;;18.77;8.18;;;-0.90;83.70;;;;;;5045022;28;20489;-68
2021/12/26 08:10:17;;;;;;;16.77;6.77;;;-0.90;83.80;;;;;;5046094;28;20353;-69
2021/12/26 08:12:43;;;;;;;18.70;8.02;;;-0.80;83.10;;;;;;5048545;28;20012;-69
2021/12/26 08:15:09;;;;;;;15.37;7.50;;;-0.80;83.00;;;;;;5043923;28;20025;-69
2021/12/26 08:17:38;;;;;;;15.73;8.37;;;-0.70;83.40;;;;;;5047974;28;20041;-69
2021/12/26 08:20:05;;;;;;;23.77;8.88;;;-0.70;81.30;;;;;;5042165;28;20255;-69
2021/12/26 08:22:31;;;;;;;;;;;-0.70;81.80;;;;;;5049711;28;20355;-69
2021/12/26 08:24:57;;;;;;;16.80;7.88;;;-0.70;80.70;;;;;;5047451;28;19915;-69
2021/12/26 08:27:22;;;;;;;21.70;8.80;;;-0.70;81.00;;;;;;5041046;28;20107;-69
2021/12/26 08:29:48;;;;;;;18.13;9.03;;;-0.70;82.10;;;;;;5046997;28;20035;-69
2021/12/26 08:32:16;;;;;;;20.90;7.97;;;-0.70;81.80;;;;;;5043473;28;20121;-69
2021/12/26 08:34:44;;;;;;;20.60;9.07;;;-0.70;81.10;;;;;;5049127;28;20036;-69
2021/12/26 08:37:10;;;;;;;18.45;9.07;;;-0.60;81.40;;;;;;5038994;28;20024;-69
2021/12/26 08:39:42;;;;;;;20.05;8.93;;;-0.70;80.30;;;;;;5049973;28;20071;-69
2021/12/26 08:42:10;;;;;;;21.35;8.73;;;-0.70;81.50;;;;;;5045364;28;20466;-69
2021/12/26 08:44:36;;;;;;;22.17;9.38;;;-0.70;83.20;;;;;;5049334;28;20535;-68
2021/12/26 08:47:04;;;;;;;21.35;8.63;;;-0.90;81.00;;;;;;5051676;28;20567;-68
2021/12/26 08:49:30;;;;;;;17.33;7.40;;;-0.80;80.40;;;;;;5047305;28;20779;-68
2021/12/26 08:51:56;;;;;;;20.07;9.63;;;-0.80;79.70;;;;;;5044174;28;20021;-69
2021/12/26 08:54:24;;;;;;;21.67;9.70;;;-0.80;80.80;;;;;;5050579;28;20143;-68
2021/12/26 08:56:49;;;;;;;20.95;9.02;;;-0.70;80.70;;;;;;5043424;28;20131;-69
2021/12/26 08:59:15;;;;;;;22.83;9.10;;;-0.80;81.20;;;;;;5048493;28;20534;-68
2021/12/26 09:01:41;;;;;;;24.97;9.40;;;-0.80;79.40;;;;;;5041791;28;20020;-70
2021/12/26 09:04:07;;;;;;;17.03;8.13;;;-0.80;80.70;;;;;;5038862;28;20055;-69
2021/12/26 09:06:34;;;;;;;19.13;8.10;;;-0.80;81.20;;;;;;5044214;28;20017;-69
2021/12/26 09:09:00;;;;;;;16.80;8.77;;;-0.70;82.00;;;;;;5046484;28;20028;-70
2021/12/26 09:11:26;;;;;;;20.33;9.30;;;-0.70;81.40;;;;;;5046050;28;20075;-69
2021/12/26 09:13:51;;;;;;;22.77;9.00;;;-0.60;82.10;;;;;;5040388;28;20025;-69
2021/12/26 09:16:17;;;;;;;18.97;9.30;;;-0.50;82.10;;;;;;5043482;28;20439;-68
2021/12/26 09:18:43;;;;;;;19.57;9.17;;;-0.50;82.00;;;;;;5023556;28;20516;-68
2021/12/26 09:21:09;;;;;;;19.93;8.60;;;-0.60;81.60;;;;;;5047104;28;20047;-69
2021/12/26 09:23:35;;;;;;;19.30;8.53;;;-0.60;81.40;;;;;;5048178;28;20033;-68
2021/12/26 09:26:01;;;;;;;23.03;10.00;;;-0.70;81.20;;;;;;5040479;28;20021;-69
2021/12/26 09:28:28;;;;;;;;;;;-0.60;82.70;;;;;;5047090;28;20017;-68
2021/12/26 09:30:54;;;;;;;17.75;8.25;;;-0.70;84.50;;;;;;5038986;28;19919;-68
2021/12/26 09:33:21;;;;;;;16.25;8.30;;;-0.70;83.00;;;;;;5045932;28;20489;-68
2021/12/26 09:35:49;;;;;;;22.77;8.82;;;-0.70;85.30;;;;;;5041370;28;20071;-68
2021/12/26 09:38:14;;;;;;;19.83;8.63;;;-0.60;85.40;;;;;;5045311;28;20037;-68
2021/12/26 09:40:40;;;;;;;17.17;8.80;;;-0.50;85.80;;;;;;5040386;28;20097;-69
2021/12/26 09:43:06;;;;;;;17.00;8.43;;;-0.50;85.50;;;;;;5044592;28;20528;-69
2021/12/26 09:45:31;;;;;;;22.70;9.83;;;-0.40;84.90;;;;;;5031307;28;20043;-68
2021/12/26 09:47:57;;;;;;;17.77;8.70;;;-0.50;83.30;;;;;;5041155;28;20562;-67
2021/12/26 09:50:24;;;;;;;16.67;8.90;;;-0.60;83.60;;;;;;5039806;28;20021;-69
2021/12/26 09:52:53;;;;;;;20.00;8.50;;;-0.70;85.10;;;;;;5047818;28;20398;-69
2021/12/26 09:55:22;;;;;;;19.05;8.43;;;-0.70;85.50;;;;;;5038921;28;20040;-69
2021/12/26 09:57:48;;;;;;;25.48;9.93;;;-0.80;84.10;;;;;;5049066;28;20020;-69
2021/12/26 10:00:37;;;;;;;19.40;8.63;;;-0.80;84.10;;;;;;5023380;28;20044;-69
2021/12/26 10:03:35;;;;;;;21.58;9.18;;;-0.90;86.00;;;;;;5047681;28;20021;-69
2021/12/26 10:06:16;;;;;;;19.27;8.23;;;-0.80;84.50;;;;;;5042108;28;20144;-69
2021/12/26 10:08:58;;;;;;;22.15;9.35;;;-0.80;85.60;;;;;;5028803;28;20024;-69
2021/12/26 10:11:28;;;;;;;22.25;9.05;;;-0.70;86.40;;;;;;5036530;28;20035;-69
2021/12/26 10:14:00;;;;;;;16.90;9.15;;;-0.70;85.40;;;;;;5042892;28;20142;-69
2021/12/26 10:16:29;;;;;;;22.30;9.13;;;-0.80;85.70;;;;;;5041257;28;20021;-68
2021/12/26 10:18:57;;;;;;;25.38;10.88;;;-0.70;85.60;;;;;;5044441;28;20017;-69
2021/12/26 10:21:37;;;;;;;22.83;9.15;;;-0.70;85.80;;;;;;5039344;28;20040;-68
2021/12/26 10:24:14;;;;;;;23.55;9.88;;;-0.70;85.20;;;;;;5045408;28;20885;-69
2021/12/26 10:26:50;;;;;;;21.15;9.63;;;-0.70;86.10;;;;;;5044788;28;20021;-68
2021/12/26 10:29:19;;;;;;;22.63;10.27;;;-0.60;86.20;;;;;;5042537;28;20796;-69
2021/12/26 10:31:48;;;;;;;20.35;9.20;;;-0.60;86.30;;;;;;5044620;28;20028;-68
2021/12/26 10:34:21;;;;;;;18.25;9.60;;;-0.50;84.80;;;;;;5042406;28;20033;-68
2021/12/26 10:36:48;;;;;;;24.58;11.00;;;-0.60;86.00;;;;;;5041929;28;20028;-68
2021/12/26 10:39:17;;;;;;;19.85;9.38;;;-0.80;86.30;;;;;;5038138;28;20037;-68
2021/12/26 10:41:46;;;;;;;20.75;9.82;;;-1.00;88.50;;;;;;5044538;28;20023;-68
2021/12/26 10:44:39;;;;;;;20.40;10.02;;;-0.90;89.00;;;;;;5026574;28;20024;-69
2021/12/26 10:47:30;;;;;;;19.80;9.38;;;-0.70;89.10;;;;;;5020382;28;20657;-69
2021/12/26 10:49:59;;;;;;;22.80;9.55;;;-0.60;89.20;;;;;;5042362;28;20124;-68
2021/12/26 10:52:31;;;;;;;22.98;10.18;;;-0.50;88.10;;;;;;5018174;28;20025;-69
2021/12/26 10:55:00;;;;;;;26.50;10.13;;;-0.50;87.70;;;;;;5040420;28;20024;-68
2021/12/26 10:57:37;;;;;;;19.75;10.20;;;-0.40;87.80;;;;;;5041040;28;20024;-68
2021/12/26 11:00:15;;;;;;;21.27;9.63;;;-0.40;87.80;;;;;;5045715;28;20092;-68
2021/12/26 11:03:09;;;;;;;18.67;10.20;;;-0.40;87.10;;;;;;5028110;28;20024;-68
2021/12/26 11:05:44;;;;;;;25.02;10.77;;;-0.40;88.10;;;;;;5035321;28;20036;-68
2021/12/26 11:08:16;;;;;;;23.02;10.07;;;-0.40;88.70;;;;;;5027521;28;20250;-68
2021/12/26 11:10:47;;;;;;;22.38;10.32;;;-0.50;89.40;;;;;;5041065;28;20005;-69
2021/12/26 11:13:20;;;;;;;24.77;10.18;;;-0.40;90.10;;;;;;5042302;28;20021;-68
2021/12/26 11:15:48;;;;;;;23.05;10.32;;;-0.40;90.00;;;;;;5042905;28;20999;-69
2021/12/26 11:18:16;;;;;;;29.27;10.73;;;-0.40;90.30;;;;;;5042545;28;20028;-69
2021/12/26 11:20:50;;;;;;;28.63;11.88;;;-0.50;90.80;;;;;;5042509;28;20523;-69
2021/12/26 11:23:19;;;;;;;29.60;11.75;;;-0.70;91.10;;;;;;5043042;28;20382;-68
2021/12/26 11:25:47;;;;;;;27.40;11.90;;;-0.70;92.20;;;;;;5036003;28;20512;-69
2021/12/26 11:28:16;;;;;;;33.38;13.02;;;-0.60;92.50;;;;;;5047229;28;20032;-68
2021/12/26 11:30:44;;;;;;;27.40;12.10;;;-0.70;93.20;;;;;;5043349;28;20106;-69
2021/12/26 11:33:11;;;;;;;24.48;10.20;;;-0.70;93.60;;;;;;5045356;28;20027;-68
2021/12/26 11:35:37;;;;;;;;;;;-0.80;94.20;;;;;;5040986;28;20162;-68
2021/12/26 11:38:03;;;;;;;33.08;13.43;;;-0.70;95.00;;;;;;5019922;28;19928;-69
2021/12/26 11:40:30;;;;;;;32.72;13.57;;;-0.70;95.30;;;;;;5035841;28;20043;-68
2021/12/26 11:43:07;;;;;;;;;;;-0.70;95.00;;;;;;5023732;28;20076;-68
2021/12/26 11:45:40;;;;;;;32.10;13.23;;;-0.70;95.60;;;;;;5047636;28;21069;-68
2021/12/26 11:48:23;;;;;;;37.28;14.63;;;-0.70;96.10;;;;;;5044297;28;20035;-68
2021/12/26 11:50:52;;;;;;;34.50;14.45;;;-0.60;96.80;;;;;;5021714;28;20024;-69
2021/12/26 11:53:18;;;;;;;32.08;13.30;;;-0.50;97.60;;;;;;5039566;28;20027;-70
2021/12/26 11:55:53;;;;;;;35.33;14.57;;;-0.50;97.60;;;;;;5041410;28;20021;-69
2021/12/26 11:58:31;;;;;;;38.17;14.95;;;-0.50;98.00;;;;;;5018125;28;20424;-69
2021/12/26 12:00:59;;;;;;;28.55;13.88;;;-0.50;98.50;;;;;;5024019;28;20528;-69
2021/12/26 12:03:29;;;;;;;38.25;15.77;;;-0.50;98.40;;;;;;5039346;28;20397;-69
2021/12/26 12:05:55;;;;;;;32.78;14.00;;;-0.50;98.50;;;;;;5043336;28;20028;-69
2021/12/26 12:08:24;;;;;;;34.28;14.95;;;-0.50;98.30;;;;;;5039024;28;20037;-67
2021/12/26 12:10:57;;;;;;;37.03;15.70;;;-0.70;99.10;;;;;;5072111;28;20420;-81
2021/12/26 12:13:23;;;;;;;39.60;15.77;;;-0.70;99.50;;;;;;5049024;28;20032;-69
2021/12/26 12:16:07;;;;;;;35.97;16.37;;;-0.60;99.90;;;;;;5024802;28;20529;-69
2021/12/26 12:18:57;;;;;;;39.15;15.32;;;-0.60;99.90;;;;;;5041319;28;20135;-69
2021/12/26 12:21:35;;;;;;;43.72;15.90;;;-0.60;99.90;;;;;;5025590;28;20112;-70
2021/12/26 12:24:12;;;;;;;45.10;17.27;;;-0.60;99.90;;;;;;5028138;28;20056;-69
2021/12/26 12:26:52;;;;;;;36.47;15.20;;;-0.50;99.90;;;;;;5039206;28;20043;-69
2021/12/26 12:29:24;;;;;;;44.00;16.95;;;-0.50;99.90;;;;;;5038352;28;20056;-69
2021/12/26 12:32:09;;;;;;;37.95;15.82;;;-0.50;99.90;;;;;;5042978;28;20025;-69
2021/12/26 12:34:53;;;;;;;40.65;16.45;;;-0.40;99.90;;;;;;5035247;28;20083;-69
2021/12/26 12:37:32;;;;;;;40.05;15.75;;;-0.60;99.90;;;;;;5046646;28;20025;-70
2021/12/26 12:40:26;;;;;;;34.65;15.05;;;-0.80;99.90;;;;;;5050352;28;20431;-69
2021/12/26 12:43:08;;;;;;;34.55;15.07;;;-0.70;99.90;;;;;;5044939;28;20344;-69
2021/12/26 12:45:53;;;;;;;37.33;16.13;;;-0.60;99.90;;;;;;5042986;28;20651;-69
2021/12/26 12:48:31;;;;;;;32.60;14.73;;;-0.60;99.90;;;;;;5041307;28;20075;-70
2021/12/26 12:51:13;;;;;;;39.28;15.75;;;-0.60;99.90;;;;;;5045172;28;20154;-69